sensor_id;sensor_type;location;lat;lon;timestamp;P1;durP1;ratioP1;P2;durP2;ratioP2
3997;SDS011;61314;53.444;9.902;2023-05-24T00:02:19;32.33;;;7.10;;
3997;SDS011;61314;53.444;9.902;2023-05-24T00:04:46;29.60;;;7.03;;
3997;SDS011;61314;53.444;9.902;2023-05-24T00:07:14;46.73;;;7.83;;
3997;SDS011;61314;53.444;9.902;2023-05-24T00:09:41;38.47;;;6.90;;
3997;SDS011;61314;53.444;9.902;2023-05-24T00:12:08;39.50;;;9.53;;
3997;SDS011;61314;53.444;9.902;2023-05-24T00:14:35;29.23;;;7.07;;
3997;SDS011;61314;53.444;9.902;2023-05-24T00:17:02;28.13;;;6.63;;
3997;SDS011;61314;53.444;9.902;2023-05-24T00:19:30;31.60;;;7.17;;
3997;SDS011;61314;53.444;9.902;2023-05-24T00:21:57;24.95;;;7.95;;
3997;SDS011;61314;53.444;9.902;2023-05-24T00:24:24;32.83;;;7.03;;
3997;SDS011;61314;53.444;9.902;2023-05-24T00:26:51;45.30;;;8.80;;
3997;SDS011;61314;53.444;9.902;2023-05-24T00:29:18;28.53;;;7.80;;
3997;SDS011;61314;53.444;9.902;2023-05-24T00:31:45;35.93;;;7.60;;
3997;SDS011;61314;53.444;9.902;2023-05-24T00:34:12;41.58;;;8.13;;
3997;SDS011;61314;53.444;9.902;2023-05-24T00:36:39;34.30;;;6.80;;
3997;SDS011;61314;53.444;9.902;2023-05-24T00:39:06;30.17;;;7.30;;
3997;SDS011;61314;53.444;9.902;2023-05-24T00:41:33;30.23;;;6.67;;
3997;SDS011;61314;53.444;9.902;2023-05-24T00:44:00;34.05;;;6.35;;
3997;SDS011;61314;53.444;9.902;2023-05-24T00:46:28;44.03;;;9.07;;
3997;SDS011;61314;53.444;9.902;2023-05-24T00:48:56;31.70;;;8.70;;
3997;SDS011;61314;53.444;9.902;2023-05-24T00:51:23;25.70;;;7.47;;
3997;SDS011;61314;53.444;9.902;2023-05-24T00:53:53;34.73;;;8.67;;
3997;SDS011;61314;53.444;9.902;2023-05-24T00:56:20;28.07;;;7.50;;
3997;SDS011;61314;53.444;9.902;2023-05-24T00:58:48;30.52;;;6.68;;
3997;SDS011;61314;53.444;9.902;2023-05-24T01:01:19;42.07;;;10.37;;
3997;SDS011;61314;53.444;9.902;2023-05-24T01:03:46;39.57;;;7.00;;
3997;SDS011;61314;53.444;9.902;2023-05-24T01:06:13;36.60;;;7.93;;
3997;SDS011;61314;53.444;9.902;2023-05-24T01:08:44;30.53;;;6.57;;
3997;SDS011;61314;53.444;9.902;2023-05-24T01:16:23;34.40;;;7.90;;
3997;SDS011;61314;53.444;9.902;2023-05-24T01:18:53;52.23;;;9.70;;
3997;SDS011;61314;53.444;9.902;2023-05-24T01:21:28;30.33;;;6.73;;
3997;SDS011;61314;53.444;9.902;2023-05-24T01:24:13;29.30;;;6.50;;
3997;SDS011;61314;53.444;9.902;2023-05-24T01:29:30;22.33;;;6.50;;
3997;SDS011;61314;53.444;9.902;2023-05-24T01:31:57;42.23;;;7.50;;
3997;SDS011;61314;53.444;9.902;2023-05-24T01:34:24;41.40;;;7.83;;
3997;SDS011;61314;53.444;9.902;2023-05-24T01:36:51;31.70;;;7.50;;
3997;SDS011;61314;53.444;9.902;2023-05-24T01:39:19;38.27;;;8.20;;
3997;SDS011;61314;53.444;9.902;2023-05-24T01:41:53;56.20;;;7.70;;
3997;SDS011;61314;53.444;9.902;2023-05-24T01:47:01;27.97;;;7.07;;
3997;SDS011;61314;53.444;9.902;2023-05-24T01:49:32;34.58;;;10.07;;
3997;SDS011;61314;53.444;9.902;2023-05-24T01:52:04;31.43;;;7.80;;
3997;SDS011;61314;53.444;9.902;2023-05-24T01:54:37;33.67;;;8.00;;
3997;SDS011;61314;53.444;9.902;2023-05-24T01:57:06;57.22;;;9.55;;
3997;SDS011;61314;53.444;9.902;2023-05-24T01:59:33;38.63;;;8.70;;
3997;SDS011;61314;53.444;9.902;2023-05-24T02:02:00;42.80;;;8.53;;
3997;SDS011;61314;53.444;9.902;2023-05-24T02:04:28;40.60;;;8.10;;
3997;SDS011;61314;53.444;9.902;2023-05-24T02:06:55;40.50;;;8.10;;
3997;SDS011;61314;53.444;9.902;2023-05-24T02:09:22;50.73;;;8.90;;
3997;SDS011;61314;53.444;9.902;2023-05-24T02:11:49;42.25;;;6.82;;
3997;SDS011;61314;53.444;9.902;2023-05-24T02:14:16;44.57;;;9.87;;
3997;SDS011;61314;53.444;9.902;2023-05-24T02:16:45;31.73;;;8.90;;
3997;SDS011;61314;53.444;9.902;2023-05-24T02:19:12;40.97;;;7.97;;
3997;SDS011;61314;53.444;9.902;2023-05-24T02:21:39;28.52;;;7.50;;
3997;SDS011;61314;53.444;9.902;2023-05-24T02:24:06;30.70;;;7.70;;
3997;SDS011;61314;53.444;9.902;2023-05-24T02:26:36;28.52;;;7.78;;
3997;SDS011;61314;53.444;9.902;2023-05-24T02:29:03;26.92;;;6.97;;
3997;SDS011;61314;53.444;9.902;2023-05-24T02:31:31;48.03;;;8.50;;
3997;SDS011;61314;53.444;9.902;2023-05-24T02:33:58;39.97;;;8.50;;
3997;SDS011;61314;53.444;9.902;2023-05-24T02:36:25;38.33;;;7.70;;
3997;SDS011;61314;53.444;9.902;2023-05-24T02:38:53;41.17;;;8.47;;
3997;SDS011;61314;53.444;9.902;2023-05-24T02:41:21;31.60;;;7.30;;
3997;SDS011;61314;53.444;9.902;2023-05-24T02:43:48;33.13;;;7.60;;
3997;SDS011;61314;53.444;9.902;2023-05-24T02:46:15;34.50;;;7.50;;
3997;SDS011;61314;53.444;9.902;2023-05-24T02:48:43;34.67;;;7.72;;
3997;SDS011;61314;53.444;9.902;2023-05-24T02:51:10;25.30;;;8.40;;
3997;SDS011;61314;53.444;9.902;2023-05-24T02:53:37;45.87;;;8.83;;
3997;SDS011;61314;53.444;9.902;2023-05-24T02:56:04;35.80;;;9.23;;
3997;SDS011;61314;53.444;9.902;2023-05-24T02:58:32;25.85;;;8.25;;
3997;SDS011;61314;53.444;9.902;2023-05-24T03:00:59;34.20;;;7.60;;
3997;SDS011;61314;53.444;9.902;2023-05-24T03:03:27;45.50;;;8.30;;
3997;SDS011;61314;53.444;9.902;2023-05-24T03:05:54;36.17;;;7.13;;
3997;SDS011;61314;53.444;9.902;2023-05-24T03:08:21;37.30;;;7.63;;
3997;SDS011;61314;53.444;9.902;2023-05-24T03:10:48;23.17;;;7.70;;
3997;SDS011;61314;53.444;9.902;2023-05-24T03:13:15;36.40;;;7.93;;
3997;SDS011;61314;53.444;9.902;2023-05-24T03:15:42;41.03;;;9.17;;
3997;SDS011;61314;53.444;9.902;2023-05-24T03:18:09;34.77;;;8.73;;
3997;SDS011;61314;53.444;9.902;2023-05-24T03:20:36;38.47;;;7.10;;
3997;SDS011;61314;53.444;9.902;2023-05-24T03:23:04;28.57;;;7.50;;
3997;SDS011;61314;53.444;9.902;2023-05-24T03:25:31;39.17;;;9.40;;
3997;SDS011;61314;53.444;9.902;2023-05-24T03:27:58;35.73;;;8.00;;
3997;SDS011;61314;53.444;9.902;2023-05-24T03:30:26;40.60;;;7.43;;
3997;SDS011;61314;53.444;9.902;2023-05-24T03:32:53;32.30;;;7.10;;
3997;SDS011;61314;53.444;9.902;2023-05-24T03:35:20;32.57;;;8.50;;
3997;SDS011;61314;53.444;9.902;2023-05-24T03:37:47;32.67;;;7.40;;
3997;SDS011;61314;53.444;9.902;2023-05-24T03:40:14;29.17;;;7.60;;
3997;SDS011;61314;53.444;9.902;2023-05-24T03:42:41;26.37;;;7.23;;
3997;SDS011;61314;53.444;9.902;2023-05-24T03:45:08;41.50;;;9.20;;
3997;SDS011;61314;53.444;9.902;2023-05-24T03:47:36;28.40;;;7.73;;
3997;SDS011;61314;53.444;9.902;2023-05-24T03:50:03;28.00;;;8.63;;
3997;SDS011;61314;53.444;9.902;2023-05-24T03:52:30;34.67;;;9.17;;
3997;SDS011;61314;53.444;9.902;2023-05-24T03:54:57;29.40;;;6.80;;
3997;SDS011;61314;53.444;9.902;2023-05-24T03:57:24;39.85;;;9.20;;
3997;SDS011;61314;53.444;9.902;2023-05-24T03:59:51;32.80;;;7.83;;
3997;SDS011;61314;53.444;9.902;2023-05-24T04:02:18;31.93;;;8.17;;
3997;SDS011;61314;53.444;9.902;2023-05-24T04:04:45;23.57;;;7.20;;
3997;SDS011;61314;53.444;9.902;2023-05-24T04:07:12;29.50;;;7.80;;
3997;SDS011;61314;53.444;9.902;2023-05-24T04:09:41;21.63;;;6.63;;
3997;SDS011;61314;53.444;9.902;2023-05-24T04:12:09;30.40;;;7.10;;
3997;SDS011;61314;53.444;9.902;2023-05-24T04:14:36;36.20;;;7.40;;
3997;SDS011;61314;53.444;9.902;2023-05-24T04:17:03;43.72;;;8.27;;
3997;SDS011;61314;53.444;9.902;2023-05-24T04:19:32;24.27;;;7.10;;
3997;SDS011;61314;53.444;9.902;2023-05-24T04:21:59;36.65;;;8.82;;
3997;SDS011;61314;53.444;9.902;2023-05-24T04:24:26;36.83;;;6.93;;
3997;SDS011;61314;53.444;9.902;2023-05-24T04:26:54;33.87;;;7.40;;
3997;SDS011;61314;53.444;9.902;2023-05-24T04:29:23;30.37;;;8.30;;
3997;SDS011;61314;53.444;9.902;2023-05-24T04:31:51;31.35;;;7.53;;
3997;SDS011;61314;53.444;9.902;2023-05-24T04:34:18;57.80;;;8.07;;
3997;SDS011;61314;53.444;9.902;2023-05-24T04:36:47;29.07;;;9.00;;
3997;SDS011;61314;53.444;9.902;2023-05-24T04:39:16;32.97;;;7.30;;
3997;SDS011;61314;53.444;9.902;2023-05-24T04:41:44;32.97;;;7.70;;
3997;SDS011;61314;53.444;9.902;2023-05-24T04:44:11;33.00;;;7.60;;
3997;SDS011;61314;53.444;9.902;2023-05-24T04:46:38;46.70;;;7.70;;
3997;SDS011;61314;53.444;9.902;2023-05-24T04:49:05;43.90;;;7.00;;
3997;SDS011;61314;53.444;9.902;2023-05-24T04:51:33;45.93;;;8.40;;
3997;SDS011;61314;53.444;9.902;2023-05-24T04:54:04;34.30;;;9.07;;
3997;SDS011;61314;53.444;9.902;2023-05-24T04:56:34;29.33;;;7.77;;
3997;SDS011;61314;53.444;9.902;2023-05-24T04:59:01;32.30;;;8.10;;
3997;SDS011;61314;53.444;9.902;2023-05-24T05:01:29;35.67;;;8.33;;
3997;SDS011;61314;53.444;9.902;2023-05-24T05:03:56;42.00;;;8.07;;
3997;SDS011;61314;53.444;9.902;2023-05-24T05:06:23;28.63;;;7.43;;
3997;SDS011;61314;53.444;9.902;2023-05-24T05:08:51;41.13;;;8.50;;
3997;SDS011;61314;53.444;9.902;2023-05-24T05:11:18;41.90;;;7.63;;
3997;SDS011;61314;53.444;9.902;2023-05-24T05:13:45;36.47;;;8.00;;
3997;SDS011;61314;53.444;9.902;2023-05-24T05:16:13;30.27;;;8.03;;
3997;SDS011;61314;53.444;9.902;2023-05-24T05:18:41;36.70;;;7.77;;
3997;SDS011;61314;53.444;9.902;2023-05-24T05:21:08;27.20;;;6.60;;
3997;SDS011;61314;53.444;9.902;2023-05-24T05:23:35;49.53;;;7.80;;
3997;SDS011;61314;53.444;9.902;2023-05-24T05:26:02;37.23;;;7.97;;
3997;SDS011;61314;53.444;9.902;2023-05-24T05:28:29;18.17;;;6.43;;
3997;SDS011;61314;53.444;9.902;2023-05-24T05:30:56;27.33;;;8.27;;
3997;SDS011;61314;53.444;9.902;2023-05-24T05:33:23;28.90;;;8.27;;
3997;SDS011;61314;53.444;9.902;2023-05-24T05:35:51;31.23;;;7.80;;
3997;SDS011;61314;53.444;9.902;2023-05-24T05:38:20;29.67;;;7.70;;
3997;SDS011;61314;53.444;9.902;2023-05-24T05:40:47;39.57;;;8.47;;
3997;SDS011;61314;53.444;9.902;2023-05-24T05:43:14;34.87;;;7.83;;
3997;SDS011;61314;53.444;9.902;2023-05-24T05:45:41;20.37;;;6.70;;
3997;SDS011;61314;53.444;9.902;2023-05-24T05:48:08;31.77;;;8.47;;
3997;SDS011;61314;53.444;9.902;2023-05-24T05:50:35;34.23;;;7.90;;
3997;SDS011;61314;53.444;9.902;2023-05-24T05:53:02;35.37;;;8.53;;
3997;SDS011;61314;53.444;9.902;2023-05-24T05:55:29;37.63;;;9.10;;
3997;SDS011;61314;53.444;9.902;2023-05-24T05:57:56;34.10;;;6.77;;
3997;SDS011;61314;53.444;9.902;2023-05-24T06:00:23;36.10;;;7.70;;
3997;SDS011;61314;53.444;9.902;2023-05-24T06:02:51;36.40;;;8.97;;
3997;SDS011;61314;53.444;9.902;2023-05-24T06:05:18;29.13;;;7.30;;
3997;SDS011;61314;53.444;9.902;2023-05-24T06:07:45;32.07;;;8.37;;
3997;SDS011;61314;53.444;9.902;2023-05-24T06:10:12;22.05;;;7.18;;
3997;SDS011;61314;53.444;9.902;2023-05-24T06:12:39;34.43;;;8.93;;
3997;SDS011;61314;53.444;9.902;2023-05-24T06:15:06;22.93;;;7.20;;
3997;SDS011;61314;53.444;9.902;2023-05-24T06:17:35;34.00;;;9.00;;
3997;SDS011;61314;53.444;9.902;2023-05-24T06:20:03;36.30;;;9.13;;
3997;SDS011;61314;53.444;9.902;2023-05-24T06:22:41;36.83;;;9.60;;
3997;SDS011;61314;53.444;9.902;2023-05-24T06:25:08;27.33;;;7.47;;
3997;SDS011;61314;53.444;9.902;2023-05-24T06:27:35;38.10;;;9.00;;
3997;SDS011;61314;53.444;9.902;2023-05-24T06:30:02;31.73;;;8.60;;
3997;SDS011;61314;53.444;9.902;2023-05-24T06:32:30;41.40;;;9.27;;
3997;SDS011;61314;53.444;9.902;2023-05-24T06:34:57;31.73;;;8.37;;
3997;SDS011;61314;53.444;9.902;2023-05-24T06:37:24;35.90;;;8.63;;
3997;SDS011;61314;53.444;9.902;2023-05-24T06:39:51;34.43;;;8.17;;
3997;SDS011;61314;53.444;9.902;2023-05-24T06:42:18;31.53;;;9.17;;
3997;SDS011;61314;53.444;9.902;2023-05-24T06:44:45;40.23;;;9.03;;
3997;SDS011;61314;53.444;9.902;2023-05-24T06:47:12;38.67;;;8.20;;
3997;SDS011;61314;53.444;9.902;2023-05-24T06:49:39;22.00;;;7.87;;
3997;SDS011;61314;53.444;9.902;2023-05-24T06:52:07;33.23;;;9.50;;
3997;SDS011;61314;53.444;9.902;2023-05-24T06:54:34;32.73;;;9.57;;
3997;SDS011;61314;53.444;9.902;2023-05-24T06:57:01;29.30;;;10.17;;
3997;SDS011;61314;53.444;9.902;2023-05-24T06:59:29;33.17;;;9.20;;
3997;SDS011;61314;53.444;9.902;2023-05-24T07:01:56;50.30;;;9.60;;
3997;SDS011;61314;53.444;9.902;2023-05-24T07:04:27;35.43;;;9.53;;
3997;SDS011;61314;53.444;9.902;2023-05-24T07:06:54;30.80;;;8.47;;
3997;SDS011;61314;53.444;9.902;2023-05-24T07:09:22;48.57;;;10.40;;
3997;SDS011;61314;53.444;9.902;2023-05-24T07:11:49;32.97;;;8.13;;
3997;SDS011;61314;53.444;9.902;2023-05-24T07:14:16;49.63;;;12.17;;
3997;SDS011;61314;53.444;9.902;2023-05-24T07:16:43;46.23;;;8.40;;
3997;SDS011;61314;53.444;9.902;2023-05-24T07:19:10;36.63;;;9.80;;
3997;SDS011;61314;53.444;9.902;2023-05-24T07:21:38;30.00;;;9.20;;
3997;SDS011;61314;53.444;9.902;2023-05-24T07:24:05;44.20;;;9.37;;
3997;SDS011;61314;53.444;9.902;2023-05-24T07:26:33;40.43;;;10.00;;
3997;SDS011;61314;53.444;9.902;2023-05-24T07:29:00;35.17;;;7.90;;
3997;SDS011;61314;53.444;9.902;2023-05-24T07:31:27;48.20;;;10.87;;
3997;SDS011;61314;53.444;9.902;2023-05-24T07:33:57;55.57;;;11.23;;
3997;SDS011;61314;53.444;9.902;2023-05-24T07:36:24;43.00;;;9.93;;
3997;SDS011;61314;53.444;9.902;2023-05-24T07:38:52;53.17;;;10.63;;
3997;SDS011;61314;53.444;9.902;2023-05-24T07:41:19;49.73;;;9.30;;
3997;SDS011;61314;53.444;9.902;2023-05-24T07:43:51;32.70;;;8.33;;
3997;SDS011;61314;53.444;9.902;2023-05-24T07:46:18;46.50;;;9.47;;
3997;SDS011;61314;53.444;9.902;2023-05-24T07:48:45;39.43;;;10.60;;
3997;SDS011;61314;53.444;9.902;2023-05-24T07:51:12;44.90;;;10.03;;
3997;SDS011;61314;53.444;9.902;2023-05-24T07:53:39;47.50;;;9.00;;
3997;SDS011;61314;53.444;9.902;2023-05-24T07:56:06;42.57;;;10.30;;
3997;SDS011;61314;53.444;9.902;2023-05-24T07:58:35;40.23;;;9.40;;
3997;SDS011;61314;53.444;9.902;2023-05-24T08:01:02;40.90;;;13.83;;
3997;SDS011;61314;53.444;9.902;2023-05-24T08:03:30;49.27;;;11.07;;
3997;SDS011;61314;53.444;9.902;2023-05-24T08:05:57;49.77;;;10.77;;
3997;SDS011;61314;53.444;9.902;2023-05-24T08:08:24;42.93;;;9.83;;
3997;SDS011;61314;53.444;9.902;2023-05-24T08:10:51;49.43;;;9.97;;
3997;SDS011;61314;53.444;9.902;2023-05-24T08:13:18;40.93;;;9.87;;
3997;SDS011;61314;53.444;9.902;2023-05-24T08:15:45;41.83;;;9.70;;
3997;SDS011;61314;53.444;9.902;2023-05-24T08:18:12;36.80;;;8.60;;
3997;SDS011;61314;53.444;9.902;2023-05-24T08:20:40;36.30;;;9.90;;
3997;SDS011;61314;53.444;9.902;2023-05-24T08:23:07;35.80;;;10.30;;
3997;SDS011;61314;53.444;9.902;2023-05-24T08:25:34;35.67;;;10.20;;
3997;SDS011;61314;53.444;9.902;2023-05-24T08:28:01;48.73;;;11.47;;
3997;SDS011;61314;53.444;9.902;2023-05-24T08:30:28;37.70;;;9.90;;
3997;SDS011;61314;53.444;9.902;2023-05-24T08:32:55;32.43;;;9.43;;
3997;SDS011;61314;53.444;9.902;2023-05-24T08:35:23;43.23;;;10.27;;
3997;SDS011;61314;53.444;9.902;2023-05-24T08:37:50;40.50;;;10.07;;
3997;SDS011;61314;53.444;9.902;2023-05-24T08:40:17;42.90;;;11.97;;
3997;SDS011;61314;53.444;9.902;2023-05-24T08:42:44;40.00;;;11.20;;
3997;SDS011;61314;53.444;9.902;2023-05-24T08:45:12;42.63;;;9.90;;
3997;SDS011;61314;53.444;9.902;2023-05-24T08:47:40;40.43;;;10.20;;
3997;SDS011;61314;53.444;9.902;2023-05-24T08:50:07;42.20;;;10.17;;
3997;SDS011;61314;53.444;9.902;2023-05-24T08:52:35;36.97;;;9.70;;
3997;SDS011;61314;53.444;9.902;2023-05-24T08:55:02;35.80;;;10.20;;
3997;SDS011;61314;53.444;9.902;2023-05-24T08:57:31;45.67;;;9.67;;
3997;SDS011;61314;53.444;9.902;2023-05-24T08:59:59;36.87;;;9.90;;
3997;SDS011;61314;53.444;9.902;2023-05-24T09:02:27;36.60;;;9.67;;
3997;SDS011;61314;53.444;9.902;2023-05-24T09:04:54;31.83;;;10.50;;
3997;SDS011;61314;53.444;9.902;2023-05-24T09:07:21;44.50;;;10.73;;
3997;SDS011;61314;53.444;9.902;2023-05-24T09:09:52;25.43;;;9.30;;
3997;SDS011;61314;53.444;9.902;2023-05-24T09:12:22;44.10;;;11.03;;
3997;SDS011;61314;53.444;9.902;2023-05-24T09:15:03;37.37;;;10.40;;
3997;SDS011;61314;53.444;9.902;2023-05-24T09:17:31;34.50;;;11.13;;
3997;SDS011;61314;53.444;9.902;2023-05-24T09:19:59;39.57;;;9.50;;
3997;SDS011;61314;53.444;9.902;2023-05-24T09:22:26;31.97;;;10.03;;
3997;SDS011;61314;53.444;9.902;2023-05-24T09:25:01;28.97;;;9.07;;
3997;SDS011;61314;53.444;9.902;2023-05-24T09:27:30;35.20;;;8.40;;
3997;SDS011;61314;53.444;9.902;2023-05-24T09:29:57;37.60;;;7.80;;
3997;SDS011;61314;53.444;9.902;2023-05-24T09:32:25;32.40;;;9.83;;
3997;SDS011;61314;53.444;9.902;2023-05-24T09:34:54;27.37;;;8.30;;
3997;SDS011;61314;53.444;9.902;2023-05-24T09:37:22;25.93;;;7.97;;
3997;SDS011;61314;53.444;9.902;2023-05-24T09:39:57;34.50;;;8.83;;
3997;SDS011;61314;53.444;9.902;2023-05-24T09:42:24;34.93;;;7.83;;
3997;SDS011;61314;53.444;9.902;2023-05-24T09:45:00;40.73;;;8.33;;
3997;SDS011;61314;53.444;9.902;2023-05-24T09:47:28;23.47;;;7.20;;
3997;SDS011;61314;53.444;9.902;2023-05-24T09:49:55;27.97;;;8.80;;
3997;SDS011;61314;53.444;9.902;2023-05-24T09:52:23;34.93;;;8.33;;
3997;SDS011;61314;53.444;9.902;2023-05-24T09:54:50;22.83;;;7.57;;
3997;SDS011;61314;53.444;9.902;2023-05-24T09:57:17;24.60;;;6.90;;
3997;SDS011;61314;53.444;9.902;2023-05-24T09:59:48;15.87;;;6.30;;
3997;SDS011;61314;53.444;9.902;2023-05-24T10:02:15;20.17;;;6.10;;
3997;SDS011;61314;53.444;9.902;2023-05-24T10:04:45;16.40;;;6.00;;
3997;SDS011;61314;53.444;9.902;2023-05-24T10:07:13;24.53;;;6.23;;
3997;SDS011;61314;53.444;9.902;2023-05-24T10:09:41;23.20;;;6.97;;
3997;SDS011;61314;53.444;9.902;2023-05-24T10:12:10;20.80;;;6.30;;
3997;SDS011;61314;53.444;9.902;2023-05-24T10:14:37;21.10;;;7.10;;
3997;SDS011;61314;53.444;9.902;2023-05-24T10:17:05;22.87;;;6.63;;
3997;SDS011;61314;53.444;9.902;2023-05-24T10:19:33;36.63;;;10.03;;
3997;SDS011;61314;53.444;9.902;2023-05-24T10:22:00;34.03;;;8.60;;
3997;SDS011;61314;53.444;9.902;2023-05-24T10:24:34;26.63;;;8.97;;
3997;SDS011;61314;53.444;9.902;2023-05-24T10:27:02;31.40;;;8.73;;
3997;SDS011;61314;53.444;9.902;2023-05-24T10:29:35;33.90;;;8.73;;
3997;SDS011;61314;53.444;9.902;2023-05-24T10:32:07;26.07;;;7.43;;
3997;SDS011;61314;53.444;9.902;2023-05-24T10:34:34;23.97;;;7.70;;
3997;SDS011;61314;53.444;9.902;2023-05-24T10:37:02;22.57;;;7.63;;
3997;SDS011;61314;53.444;9.902;2023-05-24T10:39:29;24.57;;;7.47;;
3997;SDS011;61314;53.444;9.902;2023-05-24T10:42:03;29.07;;;7.37;;
3997;SDS011;61314;53.444;9.902;2023-05-24T10:44:34;20.23;;;7.60;;
3997;SDS011;61314;53.444;9.902;2023-05-24T10:47:08;23.07;;;7.40;;
3997;SDS011;61314;53.444;9.902;2023-05-24T10:49:36;32.13;;;8.13;;
3997;SDS011;61314;53.444;9.902;2023-05-24T10:52:08;26.07;;;7.60;;
3997;SDS011;61314;53.444;9.902;2023-05-24T10:54:35;32.03;;;8.17;;
3997;SDS011;61314;53.444;9.902;2023-05-24T10:57:06;22.10;;;6.47;;
3997;SDS011;61314;53.444;9.902;2023-05-24T10:59:34;25.87;;;7.20;;
3997;SDS011;61314;53.444;9.902;2023-05-24T11:04:38;22.93;;;8.07;;
3997;SDS011;61314;53.444;9.902;2023-05-24T11:07:09;23.10;;;7.47;;
3997;SDS011;61314;53.444;9.902;2023-05-24T11:09:37;28.40;;;9.10;;
3997;SDS011;61314;53.444;9.902;2023-05-24T11:12:14;31.40;;;8.60;;
3997;SDS011;61314;53.444;9.902;2023-05-24T11:14:48;23.63;;;7.23;;
3997;SDS011;61314;53.444;9.902;2023-05-24T11:17:19;26.73;;;9.63;;
3997;SDS011;61314;53.444;9.902;2023-05-24T11:19:51;23.80;;;9.07;;
3997;SDS011;61314;53.444;9.902;2023-05-24T11:22:19;21.50;;;9.60;;
3997;SDS011;61314;53.444;9.902;2023-05-24T11:24:47;33.30;;;9.20;;
3997;SDS011;61314;53.444;9.902;2023-05-24T11:27:14;21.17;;;8.00;;
3997;SDS011;61314;53.444;9.902;2023-05-24T11:29:42;28.77;;;10.47;;
3997;SDS011;61314;53.444;9.902;2023-05-24T11:32:09;24.47;;;8.47;;
3997;SDS011;61314;53.444;9.902;2023-05-24T11:34:40;34.23;;;8.30;;
3997;SDS011;61314;53.444;9.902;2023-05-24T11:37:10;14.97;;;7.27;;
3997;SDS011;61314;53.444;9.902;2023-05-24T11:39:41;24.17;;;9.03;;
3997;SDS011;61314;53.444;9.902;2023-05-24T11:42:08;23.60;;;8.17;;
3997;SDS011;61314;53.444;9.902;2023-05-24T11:44:35;16.00;;;7.93;;
3997;SDS011;61314;53.444;9.902;2023-05-24T11:47:04;22.27;;;8.40;;
3997;SDS011;61314;53.444;9.902;2023-05-24T11:49:31;18.97;;;7.00;;
3997;SDS011;61314;53.444;9.902;2023-05-24T11:51:58;23.13;;;7.23;;
3997;SDS011;61314;53.444;9.902;2023-05-24T11:54:26;21.33;;;7.90;;
3997;SDS011;61314;53.444;9.902;2023-05-24T11:56:53;24.93;;;7.37;;
3997;SDS011;61314;53.444;9.902;2023-05-24T11:59:21;20.00;;;7.27;;
3997;SDS011;61314;53.444;9.902;2023-05-24T12:01:50;31.87;;;7.77;;
3997;SDS011;61314;53.444;9.902;2023-05-24T12:04:23;22.80;;;7.30;;
3997;SDS011;61314;53.444;9.902;2023-05-24T12:06:50;28.17;;;8.30;;
3997;SDS011;61314;53.444;9.902;2023-05-24T12:09:17;16.50;;;6.80;;
3997;SDS011;61314;53.444;9.902;2023-05-24T12:11:48;24.50;;;7.13;;
3997;SDS011;61314;53.444;9.902;2023-05-24T12:14:17;16.20;;;6.63;;
3997;SDS011;61314;53.444;9.902;2023-05-24T12:16:45;25.70;;;7.10;;
3997;SDS011;61314;53.444;9.902;2023-05-24T12:19:16;19.20;;;6.43;;
3997;SDS011;61314;53.444;9.902;2023-05-24T12:21:58;20.03;;;6.57;;
3997;SDS011;61314;53.444;9.902;2023-05-24T12:24:25;30.23;;;7.57;;
3997;SDS011;61314;53.444;9.902;2023-05-24T12:26:56;14.53;;;5.57;;
3997;SDS011;61314;53.444;9.902;2023-05-24T12:29:23;16.43;;;6.03;;
3997;SDS011;61314;53.444;9.902;2023-05-24T12:31:50;17.93;;;4.90;;
3997;SDS011;61314;53.444;9.902;2023-05-24T12:34:18;17.87;;;7.53;;
3997;SDS011;61314;53.444;9.902;2023-05-24T12:36:46;20.07;;;6.20;;
3997;SDS011;61314;53.444;9.902;2023-05-24T12:39:20;16.97;;;6.03;;
3997;SDS011;61314;53.444;9.902;2023-05-24T12:41:51;16.17;;;6.30;;
3997;SDS011;61314;53.444;9.902;2023-05-24T12:44:22;19.93;;;6.73;;
3997;SDS011;61314;53.444;9.902;2023-05-24T12:46:51;17.90;;;6.13;;
3997;SDS011;61314;53.444;9.902;2023-05-24T12:49:18;14.70;;;5.97;;
3997;SDS011;61314;53.444;9.902;2023-05-24T12:51:45;18.53;;;5.40;;
3997;SDS011;61314;53.444;9.902;2023-05-24T12:54:16;15.00;;;5.30;;
3997;SDS011;61314;53.444;9.902;2023-05-24T12:56:44;18.90;;;6.40;;
3997;SDS011;61314;53.444;9.902;2023-05-24T12:59:11;12.37;;;5.20;;
3997;SDS011;61314;53.444;9.902;2023-05-24T13:01:38;14.40;;;6.17;;
3997;SDS011;61314;53.444;9.902;2023-05-24T13:04:05;12.47;;;5.77;;
3997;SDS011;61314;53.444;9.902;2023-05-24T13:06:32;15.40;;;6.10;;
3997;SDS011;61314;53.444;9.902;2023-05-24T13:08:59;11.50;;;5.30;;
3997;SDS011;61314;53.444;9.902;2023-05-24T13:11:27;11.40;;;5.07;;
3997;SDS011;61314;53.444;9.902;2023-05-24T13:13:56;18.80;;;6.10;;
3997;SDS011;61314;53.444;9.902;2023-05-24T13:16:24;14.30;;;5.57;;
3997;SDS011;61314;53.444;9.902;2023-05-24T13:18:51;12.13;;;5.00;;
3997;SDS011;61314;53.444;9.902;2023-05-24T13:21:19;15.83;;;6.03;;
3997;SDS011;61314;53.444;9.902;2023-05-24T13:23:46;15.23;;;5.73;;
3997;SDS011;61314;53.444;9.902;2023-05-24T13:26:14;13.30;;;5.60;;
3997;SDS011;61314;53.444;9.902;2023-05-24T13:28:41;16.40;;;5.20;;
3997;SDS011;61314;53.444;9.902;2023-05-24T13:31:28;11.50;;;5.53;;
3997;SDS011;61314;53.444;9.902;2023-05-24T13:33:55;18.90;;;6.33;;
3997;SDS011;61314;53.444;9.902;2023-05-24T13:36:22;12.97;;;5.13;;
3997;SDS011;61314;53.444;9.902;2023-05-24T13:38:49;11.63;;;5.00;;
3997;SDS011;61314;53.444;9.902;2023-05-24T13:41:37;29.53;;;7.07;;
3997;SDS011;61314;53.444;9.902;2023-05-24T13:44:04;12.17;;;6.80;;
3997;SDS011;61314;53.444;9.902;2023-05-24T13:46:32;27.23;;;8.10;;
3997;SDS011;61314;53.444;9.902;2023-05-24T13:48:59;24.30;;;7.23;;
3997;SDS011;61314;53.444;9.902;2023-05-24T13:51:26;20.97;;;7.67;;
3997;SDS011;61314;53.444;9.902;2023-05-24T13:53:53;21.73;;;7.20;;
3997;SDS011;61314;53.444;9.902;2023-05-24T13:56:20;18.57;;;6.40;;
3997;SDS011;61314;53.444;9.902;2023-05-24T13:58:49;17.63;;;6.90;;
3997;SDS011;61314;53.444;9.902;2023-05-24T14:01:17;24.70;;;7.10;;
3997;SDS011;61314;53.444;9.902;2023-05-24T14:03:44;22.37;;;7.50;;
3997;SDS011;61314;53.444;9.902;2023-05-24T14:06:11;23.80;;;7.40;;
3997;SDS011;61314;53.444;9.902;2023-05-24T14:08:38;38.60;;;7.50;;
3997;SDS011;61314;53.444;9.902;2023-05-24T14:11:05;22.80;;;7.90;;
3997;SDS011;61314;53.444;9.902;2023-05-24T14:13:32;21.33;;;7.33;;
3997;SDS011;61314;53.444;9.902;2023-05-24T14:16:02;25.70;;;7.97;;
3997;SDS011;61314;53.444;9.902;2023-05-24T14:18:31;20.57;;;8.57;;
3997;SDS011;61314;53.444;9.902;2023-05-24T14:20:58;24.43;;;7.50;;
3997;SDS011;61314;53.444;9.902;2023-05-24T14:23:26;24.83;;;7.63;;
3997;SDS011;61314;53.444;9.902;2023-05-24T14:25:55;30.47;;;7.93;;
3997;SDS011;61314;53.444;9.902;2023-05-24T14:28:22;14.90;;;7.40;;
3997;SDS011;61314;53.444;9.902;2023-05-24T14:30:49;19.67;;;7.63;;
3997;SDS011;61314;53.444;9.902;2023-05-24T14:33:16;22.20;;;7.80;;
3997;SDS011;61314;53.444;9.902;2023-05-24T14:35:43;21.37;;;7.27;;
3997;SDS011;61314;53.444;9.902;2023-05-24T14:38:11;28.93;;;7.60;;
3997;SDS011;61314;53.444;9.902;2023-05-24T14:40:38;25.30;;;8.43;;
3997;SDS011;61314;53.444;9.902;2023-05-24T14:43:05;30.20;;;8.53;;
3997;SDS011;61314;53.444;9.902;2023-05-24T14:45:35;24.97;;;7.13;;
3997;SDS011;61314;53.444;9.902;2023-05-24T14:48:04;26.60;;;8.00;;
3997;SDS011;61314;53.444;9.902;2023-05-24T14:50:31;24.63;;;8.47;;
3997;SDS011;61314;53.444;9.902;2023-05-24T14:52:58;27.60;;;9.70;;
3997;SDS011;61314;53.444;9.902;2023-05-24T14:55:26;35.23;;;8.70;;
3997;SDS011;61314;53.444;9.902;2023-05-24T14:57:53;23.50;;;8.00;;
3997;SDS011;61314;53.444;9.902;2023-05-24T15:00:21;27.93;;;8.20;;
3997;SDS011;61314;53.444;9.902;2023-05-24T15:02:51;41.03;;;8.80;;
3997;SDS011;61314;53.444;9.902;2023-05-24T15:05:18;16.30;;;6.80;;